createdAt,value
2023-10-18T00:04:46.260Z,19.14
2023-10-18T00:09:51.218Z,19.12
2023-10-18T00:14:56.257Z,19.13
2023-10-18T00:19:59.129Z,19.11
2023-10-18T00:25:02.154Z,19.11
2023-10-18T00:30:08.718Z,19.10
2023-10-18T00:35:20.057Z,19.10
2023-10-18T00:40:34.076Z,19.09
2023-10-18T00:45:45.263Z,19.09
2023-10-18T00:50:49.693Z,19.08
2023-10-18T00:55:58.794Z,19.06
2023-10-18T01:01:10.284Z,19.05
2023-10-18T01:06:18.294Z,19.06
2023-10-18T01:11:24.789Z,19.04
2023-10-18T01:16:31.844Z,19.02
2023-10-18T01:21:35.270Z,19.01
2023-10-18T01:26:40.300Z,19.00
2023-10-18T01:31:45.979Z,19.02
2023-10-18T01:36:50.395Z,19.00
2023-10-18T01:41:55.465Z,19.05
2023-10-18T01:47:01.212Z,19.09
2023-10-18T01:52:05.612Z,19.12
2023-10-18T01:57:13.184Z,19.12
2023-10-18T02:02:17.752Z,19.08
2023-10-18T02:07:20.630Z,19.05
2023-10-18T02:12:24.840Z,19.01
2023-10-18T02:17:28.417Z,19.01
2023-10-18T02:22:31.506Z,18.99
2023-10-18T02:27:37.752Z,19.00
2023-10-18T02:32:42.692Z,18.98
2023-10-18T02:37:45.743Z,18.99
2023-10-18T02:42:49.925Z,19.00
2023-10-18T02:47:53.475Z,18.99
2023-10-18T02:52:56.368Z,18.98
2023-10-18T02:58:00.932Z,18.99
2023-10-18T03:03:04.003Z,18.97
2023-10-18T03:08:09.678Z,18.97
2023-10-18T03:13:14.571Z,18.96
2023-10-18T03:18:19.997Z,18.96
2023-10-18T03:23:23.639Z,18.96
2023-10-18T03:28:35.139Z,18.96
2023-10-18T03:33:38.187Z,18.95
2023-10-18T03:38:42.748Z,18.95
2023-10-18T03:43:49.584Z,18.93
2023-10-18T03:48:55.706Z,18.92
2023-10-18T03:54:01.565Z,18.94
2023-10-18T03:59:20.411Z,18.95
2023-10-18T04:04:26.452Z,18.92
2023-10-18T04:09:30.866Z,18.92
2023-10-18T04:14:35.209Z,18.92
2023-10-18T04:19:38.166Z,18.92
2023-10-18T04:24:41.063Z,18.91
2023-10-18T04:29:48.502Z,18.89
2023-10-18T04:34:51.520Z,18.90
2023-10-18T04:39:54.736Z,18.91
2023-10-18T04:45:03.819Z,18.89
2023-10-18T04:50:12.880Z,18.90
2023-10-18T04:55:16.315Z,18.89
2023-10-18T05:00:36.302Z,18.89
2023-10-18T05:05:45.701Z,18.89
2023-10-18T05:10:51.179Z,18.89
2023-10-18T05:16:02.514Z,18.88
2023-10-18T05:21:09.486Z,18.89
2023-10-18T05:26:18.440Z,18.89
2023-10-18T05:31:28.366Z,18.88
2023-10-18T05:36:40.014Z,18.88
2023-10-18T05:41:49.469Z,18.88
2023-10-18T05:46:53.667Z,18.87
2023-10-18T05:52:00.274Z,18.87
2023-10-18T05:57:03.555Z,18.89
2023-10-18T06:02:12.314Z,18.88
2023-10-18T06:07:17.450Z,18.88
2023-10-18T06:12:23.996Z,18.88
2023-10-18T06:17:41.826Z,18.86
2023-10-18T06:22:48.347Z,19.13
2023-10-18T06:27:54.648Z,19.52
2023-10-18T06:32:59.051Z,19.74
2023-10-18T06:38:03.112Z,19.89
2023-10-18T06:43:07.825Z,20.23
2023-10-18T06:48:15.202Z,20.36
2023-10-18T06:53:18.193Z,20.34
2023-10-18T06:58:42.537Z,20.45
2023-10-18T07:03:46.851Z,20.53
2023-10-18T07:08:51.857Z,20.62
2023-10-18T07:13:55.735Z,20.70
2023-10-18T07:19:22.590Z,20.75
2023-10-18T07:24:34.713Z,20.82
2023-10-18T07:29:38.521Z,20.87
2023-10-18T07:34:44.023Z,20.87
2023-10-18T07:39:50.440Z,20.84
2023-10-18T07:44:56.459Z,20.91
2023-10-18T07:50:01.268Z,20.89
2023-10-18T07:55:06.392Z,20.93
2023-10-18T08:00:23.492Z,20.95
2023-10-18T08:05:32.818Z,20.97
2023-10-18T08:10:36.975Z,20.92
2023-10-18T08:15:51.296Z,20.98
2023-10-18T08:21:07.607Z,20.94
2023-10-18T08:26:10.669Z,20.85
2023-10-18T08:31:17.853Z,21.01
2023-10-18T08:36:30.340Z,20.99
2023-10-18T08:41:34.344Z,20.96
2023-10-18T08:46:42.853Z,20.88
2023-10-18T08:51:51.947Z,20.82
2023-10-18T08:56:54.958Z,20.79
2023-10-18T09:02:10.585Z,20.76
2023-10-18T09:07:43.699Z,20.88
2023-10-18T09:13:04.391Z,20.94
2023-10-18T09:18:07.662Z,21.00
2023-10-18T09:23:21.117Z,21.05
2023-10-18T09:28:33.973Z,21.05
2023-10-18T09:33:37.580Z,21.07
2023-10-18T09:38:42.723Z,21.13
2023-10-18T09:43:47.881Z,21.17
2023-10-18T09:48:50.704Z,21.15
2023-10-18T09:53:56.040Z,21.10
2023-10-18T09:59:06.732Z,21.18
2023-10-18T10:04:13.810Z,21.20
2023-10-18T10:09:20.757Z,21.19
2023-10-18T10:14:23.647Z,21.11
2023-10-18T10:19:30.267Z,21.20
2023-10-18T10:24:37.010Z,21.18
2023-10-18T10:29:42.235Z,21.34
2023-10-18T10:34:45.339Z,21.32
2023-10-18T10:39:51.938Z,21.31
2023-10-18T10:44:58.638Z,21.28
2023-10-18T10:50:02.233Z,21.34
2023-10-18T10:55:19.222Z,21.24
2023-10-18T11:00:38.335Z,21.29
2023-10-18T11:05:46.415Z,21.30
2023-10-18T11:10:50.618Z,21.32
2023-10-18T11:15:54.352Z,21.25
2023-10-18T11:21:06.719Z,21.28
2023-10-18T11:26:20.881Z,21.37
2023-10-18T11:31:28.121Z,21.41
2023-10-18T11:36:32.018Z,21.41
2023-10-18T11:41:37.304Z,21.44
2023-10-18T11:46:51.198Z,21.43
2023-10-18T11:51:55.229Z,21.47
2023-10-18T11:57:00.002Z,21.43
2023-10-18T12:02:06.140Z,21.47
2023-10-18T12:07:10.091Z,21.43
2023-10-18T12:12:15.325Z,21.45
2023-10-18T12:17:18.812Z,21.45
2023-10-18T12:22:25.023Z,21.43
2023-10-18T12:27:35.863Z,21.52
2023-10-18T12:32:43.701Z,21.47
2023-10-18T12:37:47.041Z,21.60
2023-10-18T12:42:51.404Z,21.61
2023-10-18T12:47:54.326Z,21.54
2023-10-18T12:53:17.957Z,21.57
2023-10-18T12:58:30.103Z,21.56
2023-10-18T13:03:35.327Z,21.62
2023-10-18T13:08:40.560Z,21.64
2023-10-18T13:13:46.666Z,21.55
2023-10-18T13:18:49.752Z,21.59
2023-10-18T13:23:57.387Z,21.67
2023-10-18T13:29:02.149Z,21.71
2023-10-18T13:34:08.033Z,21.76
2023-10-18T13:39:13.856Z,21.75
2023-10-18T13:44:20.557Z,21.71
2023-10-18T13:49:25.014Z,21.69
2023-10-18T13:54:30.262Z,21.73
2023-10-18T13:59:39.309Z,21.80
2023-10-18T14:04:46.708Z,21.79
2023-10-18T14:09:49.930Z,21.79
2023-10-18T14:14:54.155Z,21.78
2023-10-18T14:20:08.688Z,21.85
2023-10-18T14:25:17.981Z,21.86
2023-10-18T14:30:22.504Z,21.82
2023-10-18T14:35:26.606Z,21.77
2023-10-18T14:40:38.018Z,21.71
2023-10-18T14:45:44.153Z,21.73
2023-10-18T14:50:47.042Z,21.66
2023-10-18T14:55:50.252Z,21.72
2023-10-18T15:00:54.501Z,21.75
2023-10-18T15:05:57.356Z,21.71
2023-10-18T15:11:00.548Z,21.55
2023-10-18T15:16:07.900Z,21.43
2023-10-18T15:21:11.466Z,21.34
2023-10-18T15:26:17.961Z,21.28
2023-10-18T15:31:23.234Z,21.21
2023-10-18T15:36:26.307Z,21.12
2023-10-18T15:41:29.237Z,21.08
2023-10-18T15:46:37.809Z,21.02
2023-10-18T15:51:42.018Z,20.99
2023-10-18T15:56:45.850Z,20.98
2023-10-18T16:01:58.348Z,20.95
2023-10-18T16:07:02.674Z,20.93
2023-10-18T16:12:07.772Z,20.91
2023-10-18T16:17:15.453Z,20.88
2023-10-18T16:22:20.280Z,20.86
2023-10-18T16:27:24.465Z,20.81
2023-10-18T16:32:28.727Z,20.79
2023-10-18T16:37:31.578Z,20.76
2023-10-18T16:42:34.432Z,20.72
2023-10-18T16:47:38.809Z,20.70
2023-10-18T16:52:41.892Z,20.70
2023-10-18T16:57:44.770Z,20.66
2023-10-18T17:07:53.485Z,20.63
2023-10-18T17:12:56.392Z,20.61
2023-10-18T17:18:00.732Z,20.59
2023-10-18T17:23:04.013Z,20.58
2023-10-18T17:28:08.874Z,20.56
2023-10-18T17:33:15.381Z,20.53
2023-10-18T17:38:20.370Z,20.52
2023-10-18T17:43:24.046Z,20.51
2023-10-18T17:48:29.595Z,20.49
2023-10-18T17:53:33.951Z,20.49
2023-10-18T17:58:39.576Z,20.49
2023-10-18T18:03:44.413Z,20.50
2023-10-18T18:08:47.466Z,20.48
2023-10-18T18:13:50.783Z,20.46
2023-10-18T18:18:56.389Z,20.45
2023-10-18T18:23:59.212Z,20.43
2023-10-18T18:29:02.240Z,20.40
2023-10-18T18:34:06.559Z,20.42
2023-10-18T18:39:13.101Z,20.40
2023-10-18T18:44:16.075Z,20.38
2023-10-18T18:49:20.520Z,20.37
2023-10-18T18:54:23.518Z,20.36
2023-10-18T18:59:26.408Z,20.35
2023-10-18T19:04:30.621Z,20.34
2023-10-18T19:09:33.474Z,20.34
2023-10-18T19:14:36.584Z,20.33
2023-10-18T19:19:41.123Z,20.32
2023-10-18T19:24:44.003Z,20.31
2023-10-18T19:29:47.249Z,20.31
2023-10-18T19:34:51.966Z,20.30
2023-10-18T19:39:54.931Z,20.28
2023-10-18T19:44:58.200Z,20.27
2023-10-18T19:50:04.052Z,20.27
2023-10-18T19:55:08.756Z,20.25
2023-10-18T20:00:16.311Z,20.26
2023-10-18T20:05:20.624Z,20.26
2023-10-18T20:10:23.563Z,20.24
2023-10-18T20:15:26.492Z,20.23
2023-10-18T20:20:31.014Z,20.23
2023-10-18T20:25:34.344Z,20.21
2023-10-18T20:30:38.531Z,20.22
2023-10-18T20:35:43.223Z,20.21
2023-10-18T20:40:46.116Z,20.20
2023-10-18T20:45:50.037Z,20.19
2023-10-18T20:50:55.248Z,20.18
2023-10-18T20:55:58.826Z,20.18
2023-10-18T21:01:09.465Z,20.17
2023-10-18T21:06:19.211Z,20.16
2023-10-18T21:11:23.842Z,20.16
2023-10-18T21:16:27.825Z,20.15
2023-10-18T21:21:33.120Z,20.15
2023-10-18T21:26:36.005Z,20.15
2023-10-18T21:31:40.885Z,20.14
2023-10-18T21:36:45.378Z,20.14
2023-10-18T21:41:48.226Z,20.15
2023-10-18T21:46:51.132Z,20.14
2023-10-18T21:51:57.594Z,20.13
2023-10-18T21:57:02.380Z,20.13
2023-10-18T22:02:06.423Z,20.13
2023-10-18T22:07:16.054Z,20.12
2023-10-18T22:12:19.982Z,20.10
2023-10-18T22:17:26.093Z,20.10
2023-10-18T22:22:30.525Z,20.11
2023-10-18T22:27:39.081Z,20.09
2023-10-18T22:32:42.428Z,20.09
2023-10-18T22:37:47.751Z,20.09
2023-10-18T22:42:52.833Z,20.08
2023-10-18T22:48:00.027Z,20.08
2023-10-18T22:53:18.997Z,20.07
2023-10-18T22:58:27.079Z,20.06
2023-10-18T23:03:33.154Z,20.07
2023-10-18T23:08:38.772Z,20.06
2023-10-18T23:13:48.809Z,20.07
2023-10-18T23:18:56.026Z,20.06
2023-10-18T23:24:23.579Z,20.06
2023-10-18T23:29:33.536Z,20.05
2023-10-18T23:34:38.586Z,20.04
2023-10-18T23:39:44.299Z,20.05
2023-10-18T23:44:58.338Z,20.04
2023-10-18T23:50:02.199Z,20.03
2023-10-18T23:55:14.772Z,20.03
